Time;durP1;ratioP1;P1;durP2;ratioP2;P2;SDS_P1;SDS_P2;PMS_P1;PMS_P2;Temp;Humidity;BMP_temperature;BMP_pressure;BME280_temperature;BME280_humidity;BME280_pressure;Samples;Min_cycle;Max_cycle;Signal;HPM_P1;HPM_P2
2023/12/29 00:02:07;;;;;;;15.20;6.50;;;;;;;;;;4992501;28;20198;-84
2023/12/29 00:04:35;;;;;;;8.00;5.27;;;;;;;;;;4997408;28;20229;-84
2023/12/29 00:07:05;;;;;;;8.03;4.93;;;;;;;;;;5013036;28;20189;-84
2023/12/29 00:09:38;;;;;;;9.97;5.53;;;;;;;;;;5014400;28;20205;-85
2023/12/29 00:12:08;;;;;;;7.83;4.83;;;;;;;;;;5016671;28;20182;-83
2023/12/29 00:14:38;;;;;;;5.70;4.10;;;;;;;;;;4986307;28;20241;-84
2023/12/29 00:17:08;;;;;;;6.63;4.80;;;;;;;;;;4978976;28;20205;-84
2023/12/29 00:19:37;;;;;;;9.03;5.60;;;;;;;;;;4989969;28;20289;-84
2023/12/29 00:22:08;;;;;;;8.23;4.87;;;;;;;;;;4990556;28;20189;-85
2023/12/29 00:24:37;;;;;;;8.67;5.73;;;;;;;;;;4992342;28;20197;-84
2023/12/29 00:27:05;;;;;;;9.03;5.13;;;;;;;;;;4992121;28;20201;-85
2023/12/29 00:29:36;;;;;;;9.83;5.23;;;;;;;;;;4990026;28;20251;-84
2023/12/29 00:32:07;;;;;;;18.17;5.33;;;;;;;;;;4991778;28;20217;-83
2023/12/29 00:34:37;;;;;;;8.87;4.57;;;;;;;;;;4991108;28;20225;-84
2023/12/29 00:37:05;;;;;;;10.17;5.23;;;;;;;;;;4991289;28;20256;-83
2023/12/29 00:39:38;;;;;;;12.67;5.93;;;;;;;;;;4994450;28;20232;-84
2023/12/29 00:42:08;;;;;;;8.07;5.17;;;;;;;;;;4997819;28;20261;-84
2023/12/29 00:44:39;;;;;;;11.63;5.00;;;;;;;;;;4993660;28;20647;-84
2023/12/29 00:47:11;;;;;;;11.40;6.93;;;;;;;;;;4991262;28;20215;-83
2023/12/29 00:49:41;;;;;;;25.07;10.20;;;;;;;;;;4991295;28;20279;-84
2023/12/29 00:52:11;;;;;;;32.50;12.90;;;;;;;;;;4990201;28;20396;-84
2023/12/29 00:54:41;;;;;;;33.77;13.70;;;;;;;;;;4990244;28;20774;-83
2023/12/29 00:57:11;;;;;;;22.77;8.17;;;;;;;;;;4990460;28;20339;-83
2023/12/29 00:59:43;;;;;;;27.27;10.13;;;;;;;;;;4990521;28;20185;-83
2023/12/29 01:02:13;;;;;;;12.63;7.00;;;;;;;;;;4991325;28;20221;-84
2023/12/29 01:04:42;;;;;;;12.63;6.93;;;;;;;;;;4990375;28;20675;-84
2023/12/29 01:07:11;;;;;;;17.27;8.67;;;;;;;;;;4990293;28;20209;-84
2023/12/29 01:09:40;;;;;;;14.97;6.83;;;;;;;;;;4990819;28;20283;-84
2023/12/29 01:12:11;;;;;;;17.23;5.87;;;;;;;;;;4990766;28;20202;-84
2023/12/29 01:14:41;;;;;;;10.77;5.87;;;;;;;;;;4990256;28;20197;-84
2023/12/29 01:17:09;;;;;;;13.27;5.70;;;;;;;;;;4990750;28;20240;-85
2023/12/29 01:19:39;;;;;;;13.67;6.50;;;;;;;;;;4990832;28;20201;-85
2023/12/29 01:22:08;;;;;;;8.03;5.80;;;;;;;;;;4990081;28;20300;-83
2023/12/29 01:24:36;;;;;;;17.70;7.27;;;;;;;;;;4990460;28;20197;-85
2023/12/29 01:27:05;;;;;;;9.43;7.53;;;;;;;;;;4990842;28;20277;-85
2023/12/29 01:29:34;;;;;;;18.17;7.07;;;;;;;;;;4989766;28;20320;-83
2023/12/29 01:32:07;;;;;;;6.80;5.13;;;;;;;;;;4990315;28;20287;-84
2023/12/29 01:34:40;;;;;;;11.00;6.63;;;;;;;;;;4990709;28;20205;-86
2023/12/29 01:37:08;;;;;;;12.77;6.77;;;;;;;;;;4991115;28;20226;-84
2023/12/29 01:39:39;;;;;;;10.90;6.50;;;;;;;;;;4990748;28;20655;-84
2023/12/29 01:42:08;;;;;;;18.97;9.33;;;;;;;;;;4990592;28;20237;-84
2023/12/29 01:44:43;;;;;;;11.07;6.37;;;;;;;;;;4990188;28;20205;-84
2023/12/29 01:47:15;;;;;;;16.30;7.40;;;;;;;;;;4990027;28;20196;-84
2023/12/29 01:49:46;;;;;;;13.37;6.80;;;;;;;;;;4989651;28;20260;-83
2023/12/29 01:52:15;;;;;;;19.23;6.23;;;;;;;;;;4989617;28;20654;-84
2023/12/29 01:54:45;;;;;;;13.47;7.50;;;;;;;;;;4989669;28;20220;-84
2023/12/29 01:57:13;;;;;;;23.50;7.87;;;;;;;;;;4989294;28;20280;-85
2023/12/29 01:59:45;;;;;;;11.13;7.30;;;;;;;;;;4989791;28;20201;-85
2023/12/29 02:02:15;;;;;;;12.47;5.97;;;;;;;;;;4989595;28;20594;-83
2023/12/29 02:04:46;;;;;;;12.60;6.30;;;;;;;;;;4989880;28;20205;-84
2023/12/29 02:07:14;;;;;;;18.03;7.13;;;;;;;;;;4989685;28;20329;-85
2023/12/29 02:09:45;;;;;;;14.63;7.53;;;;;;;;;;4988708;28;20233;-85
2023/12/29 02:12:14;;;;;;;13.50;7.60;;;;;;;;;;4989303;28;20220;-83
2023/12/29 02:14:43;;;;;;;10.97;5.80;;;;;;;;;;4989042;28;20201;-83
2023/12/29 02:17:13;;;;;;;12.83;6.30;;;;;;;;;;4989856;28;20726;-83
2023/12/29 02:19:44;;;;;;;14.23;7.93;;;;;;;;;;4992903;28;20256;-85
2023/12/29 02:22:13;;;;;;;8.60;5.40;;;;;;;;;;4993245;28;20225;-83
2023/12/29 02:24:42;;;;;;;7.57;5.27;;;;;;;;;;4993324;28;20213;-83
2023/12/29 02:27:19;;;;;;;9.83;5.33;;;;;;;;;;4996020;28;20201;-82
2023/12/29 02:29:52;;;;;;;6.93;5.47;;;;;;;;;;4999891;28;20316;-82
2023/12/29 02:32:20;;;;;;;16.20;6.93;;;;;;;;;;4999998;28;20737;-83
2023/12/29 02:34:51;;;;;;;22.97;13.13;;;;;;;;;;5000019;28;20201;-82
2023/12/29 02:37:19;;;;;;;17.73;8.80;;;;;;;;;;4998706;28;20201;-84
2023/12/29 02:39:49;;;;;;;11.87;7.63;;;;;;;;;;4993861;28;20238;-84
2023/12/29 02:42:19;;;;;;;13.73;7.57;;;;;;;;;;4993037;28;20231;-83
2023/12/29 02:44:47;;;;;;;13.67;8.63;;;;;;;;;;4993328;28;20197;-83
2023/12/29 02:47:19;;;;;;;14.40;7.63;;;;;;;;;;4993515;28;20216;-84
2023/12/29 02:49:50;;;;;;;12.27;6.67;;;;;;;;;;4992787;28;20259;-84
2023/12/29 02:52:19;;;;;;;14.07;8.50;;;;;;;;;;5005147;28;20201;-83
2023/12/29 02:54:47;;;;;;;12.63;8.60;;;;;;;;;;5013393;28;20220;-84
2023/12/29 02:57:18;;;;;;;20.23;10.33;;;;;;;;;;5015237;28;20198;-83
2023/12/29 02:59:48;;;;;;;33.47;13.87;;;;;;;;;;5008053;28;20543;-84
2023/12/29 03:02:16;;;;;;;24.33;11.63;;;;;;;;;;4994298;28;20283;-83
2023/12/29 03:04:46;;;;;;;15.07;8.70;;;;;;;;;;4992616;28;20201;-83
2023/12/29 03:07:15;;;;;;;18.47;9.37;;;;;;;;;;4992862;28;20284;-84
2023/12/29 03:09:43;;;;;;;17.23;9.00;;;;;;;;;;4994292;28;20240;-84
2023/12/29 03:12:13;;;;;;;21.77;8.47;;;;;;;;;;4993231;28;20452;-83
2023/12/29 03:14:47;;;;;;;9.00;7.20;;;;;;;;;;4992833;28;20213;-84
2023/12/29 03:17:15;;;;;;;29.03;16.87;;;;;;;;;;5000605;28;20291;-82
2023/12/29 03:19:47;;;;;;;21.10;10.33;;;;;;;;;;5008089;28;20221;-84
2023/12/29 03:22:16;;;;;;;15.50;9.13;;;;;;;;;;4985826;28;20589;-84
2023/12/29 03:24:48;;;;;;;14.87;9.47;;;;;;;;;;4990152;28;20237;-84
2023/12/29 03:27:17;;;;;;;23.33;11.33;;;;;;;;;;4984506;28;20593;-83
2023/12/29 03:29:48;;;;;;;11.80;7.40;;;;;;;;;;4968777;28;20224;-83
2023/12/29 03:32:18;;;;;;;11.33;6.33;;;;;;;;;;4981919;28;20225;-83
2023/12/29 03:34:48;;;;;;;18.17;6.30;;;;;;;;;;4984028;28;20208;-84
2023/12/29 03:37:19;;;;;;;11.10;6.87;;;;;;;;;;4973589;28;20619;-83
2023/12/29 03:39:49;;;;;;;14.03;8.13;;;;;;;;;;4963204;28;20210;-82
2023/12/29 03:42:18;;;;;;;12.27;7.10;;;;;;;;;;4990761;28;20237;-85
2023/12/29 03:44:47;;;;;;;8.80;6.23;;;;;;;;;;4982640;28;20222;-84
2023/12/29 03:47:18;;;;;;;17.07;8.53;;;;;;;;;;4991612;28;20232;-83
2023/12/29 03:49:48;;;;;;;12.87;8.40;;;;;;;;;;4991693;28;20230;-84
2023/12/29 03:52:15;;;;;;;19.07;8.40;;;;;;;;;;4986008;28;20556;-83
2023/12/29 03:54:45;;;;;;;11.37;7.97;;;;;;;;;;4982610;28;20627;-83
2023/12/29 03:57:13;;;;;;;6.50;5.63;;;;;;;;;;4990682;28;20203;-84
2023/12/29 03:59:43;;;;;;;11.23;7.27;;;;;;;;;;4991499;28;20225;-83
2023/12/29 04:02:12;;;;;;;15.97;7.53;;;;;;;;;;4967716;28;20205;-85
2023/12/29 04:04:42;;;;;;;15.63;9.17;;;;;;;;;;4979999;28;20213;-85
2023/12/29 04:07:13;;;;;;;10.20;6.80;;;;;;;;;;4980138;28;20279;-83
2023/12/29 04:09:43;;;;;;;11.27;6.23;;;;;;;;;;4979936;28;20662;-83
2023/12/29 04:12:12;;;;;;;9.93;5.33;;;;;;;;;;4986319;28;20217;-84
2023/12/29 04:14:40;;;;;;;10.13;5.00;;;;;;;;;;4974828;28;20204;-83
2023/12/29 04:17:13;;;;;;;12.50;6.83;;;;;;;;;;4980131;28;20214;-84
2023/12/29 04:19:41;;;;;;;7.57;4.93;;;;;;;;;;4990072;28;20197;-82
2023/12/29 04:22:10;;;;;;;6.30;5.50;;;;;;;;;;4974992;28;20221;-84
2023/12/29 04:24:41;;;;;;;9.30;6.23;;;;;;;;;;4984824;28;20209;-84
2023/12/29 04:27:11;;;;;;;27.90;16.27;;;;;;;;;;4951342;29;20230;-84
2023/12/29 04:29:40;;;;;;;19.83;11.67;;;;;;;;;;4984685;28;20315;-82
2023/12/29 04:32:10;;;;;;;20.93;7.63;;;;;;;;;;4991373;28;20221;-83
2023/12/29 04:34:38;;;;;;;13.50;9.43;;;;;;;;;;4984446;28;20662;-85
2023/12/29 04:37:07;;;;;;;9.13;6.33;;;;;;;;;;4983780;28;20745;-84
2023/12/29 04:39:36;;;;;;;6.53;4.30;;;;;;;;;;4980709;28;20216;-84
2023/12/29 04:42:04;;;;;;;6.17;5.07;;;;;;;;;;4973761;28;20303;-84
2023/12/29 04:44:34;;;;;;;5.93;4.13;;;;;;;;;;4962913;28;20214;-84
2023/12/29 04:47:06;;;;;;;14.60;5.50;;;;;;;;;;4977950;28;20252;-84
2023/12/29 04:49:35;;;;;;;16.27;4.67;;;;;;;;;;4974214;28;20308;-83
2023/12/29 04:52:03;;;;;;;14.07;5.90;;;;;;;;;;4981459;28;20237;-84
2023/12/29 04:54:31;;;;;;;9.80;5.03;;;;;;;;;;4978313;28;20432;-84
2023/12/29 04:57:05;;;;;;;13.37;6.10;;;;;;;;;;4975459;28;20210;-84
2023/12/29 04:59:37;;;;;;;11.43;6.07;;;;;;;;;;4971614;28;20672;-84
2023/12/29 05:02:07;;;;;;;10.07;8.27;;;;;;;;;;4970834;28;20194;-83
2023/12/29 05:04:34;;;;;;;10.27;4.97;;;;;;;;;;4970428;28;20200;-84
2023/12/29 05:07:03;;;;;;;12.50;4.80;;;;;;;;;;4970357;28;20213;-84
2023/12/29 05:09:30;;;;;;;11.63;5.27;;;;;;;;;;4970094;28;20238;-84
2023/12/29 05:12:00;;;;;;;6.90;5.60;;;;;;;;;;4971509;28;20194;-84
2023/12/29 05:14:29;;;;;;;9.53;5.43;;;;;;;;;;4971253;28;20265;-84
2023/12/29 05:17:00;;;;;;;11.03;7.10;;;;;;;;;;4970764;28;20204;-84
2023/12/29 05:19:29;;;;;;;10.03;5.43;;;;;;;;;;4970499;28;20273;-83
2023/12/29 05:21:57;;;;;;;17.63;6.83;;;;;;;;;;4971404;28;20198;-85
2023/12/29 05:24:26;;;;;;;12.33;7.13;;;;;;;;;;4971186;28;20193;-84
2023/12/29 05:26:55;;;;;;;5.90;4.63;;;;;;;;;;4972038;28;20213;-84
2023/12/29 05:29:25;;;;;;;10.13;7.13;;;;;;;;;;4990404;28;20311;-84
2023/12/29 05:31:55;;;;;;;11.10;5.73;;;;;;;;;;4990649;28;20289;-84
2023/12/29 05:34:25;;;;;;;10.27;6.40;;;;;;;;;;4989490;28;20269;-83
2023/12/29 05:36:55;;;;;;;12.70;7.17;;;;;;;;;;4991050;28;20201;-84
2023/12/29 05:39:25;;;;;;;15.03;6.37;;;;;;;;;;5007245;28;20209;-85
2023/12/29 05:41:54;;;;;;;14.70;6.37;;;;;;;;;;5012775;28;20263;-84
2023/12/29 05:44:23;;;;;;;7.70;5.07;;;;;;;;;;5014979;28;20189;-85
2023/12/29 05:46:52;;;;;;;17.93;6.63;;;;;;;;;;5012734;28;20198;-83
2023/12/29 05:49:21;;;;;;;7.63;4.90;;;;;;;;;;4991008;28;20268;-84
2023/12/29 05:51:52;;;;;;;13.83;5.80;;;;;;;;;;4991426;28;20205;-84
2023/12/29 05:54:20;;;;;;;5.73;5.00;;;;;;;;;;4990366;28;20217;-85
2023/12/29 05:56:51;;;;;;;12.27;7.07;;;;;;;;;;4987460;28;20220;-83
2023/12/29 05:59:23;;;;;;;15.43;6.40;;;;;;;;;;4970185;28;20198;-84
2023/12/29 06:01:56;;;;;;;12.93;6.63;;;;;;;;;;4970131;28;20202;-83
2023/12/29 06:04:24;;;;;;;10.57;6.30;;;;;;;;;;4970105;28;20289;-83
2023/12/29 06:06:56;;;;;;;13.43;7.37;;;;;;;;;;4969536;28;20275;-84
2023/12/29 06:09:27;;;;;;;14.33;8.07;;;;;;;;;;4968796;28;20257;-83
2023/12/29 06:11:56;;;;;;;8.37;5.77;;;;;;;;;;4970218;28;20645;-83
2023/12/29 06:14:25;;;;;;;25.60;11.83;;;;;;;;;;4970790;28;20307;-84
2023/12/29 06:16:54;;;;;;;23.57;11.90;;;;;;;;;;4969926;28;20553;-84
2023/12/29 06:19:21;;;;;;;13.40;7.23;;;;;;;;;;4969534;28;20213;-84
2023/12/29 06:21:50;;;;;;;21.70;9.67;;;;;;;;;;4970078;28;20260;-83
2023/12/29 06:24:23;;;;;;;18.80;10.07;;;;;;;;;;4969473;28;20285;-83
2023/12/29 06:26:51;;;;;;;19.50;8.43;;;;;;;;;;4973117;28;20206;-83
2023/12/29 06:29:20;;;;;;;16.77;9.50;;;;;;;;;;4988954;28;20244;-84
2023/12/29 06:31:50;;;;;;;17.80;7.90;;;;;;;;;;4988870;28;20201;-84
2023/12/29 06:34:20;;;;;;;20.93;10.37;;;;;;;;;;4989159;28;20206;-82
2023/12/29 06:36:48;;;;;;;14.50;9.57;;;;;;;;;;4989718;28;20233;-85
2023/12/29 06:39:17;;;;;;;28.40;14.47;;;;;;;;;;4988042;28;20193;-84
2023/12/29 06:41:48;;;;;;;26.27;11.80;;;;;;;;;;4989570;28;20249;-84
2023/12/29 06:44:16;;;;;;;21.20;11.77;;;;;;;;;;4989796;28;20193;-84
2023/12/29 06:46:45;;;;;;;23.47;11.07;;;;;;;;;;4988160;28;20702;-83
2023/12/29 06:49:13;;;;;;;19.23;11.03;;;;;;;;;;4989022;28;20233;-84
2023/12/29 06:51:42;;;;;;;17.87;10.50;;;;;;;;;;4989484;28;20201;-83
2023/12/29 06:54:12;;;;;;;22.00;10.93;;;;;;;;;;4989242;28;20548;-84
2023/12/29 06:56:40;;;;;;;17.67;9.40;;;;;;;;;;4989294;28;20299;-84
2023/12/29 06:59:10;;;;;;;23.47;12.33;;;;;;;;;;4989857;28;20321;-83
2023/12/29 07:01:41;;;;;;;28.13;14.43;;;;;;;;;;4989441;28;20212;-85
2023/12/29 07:04:11;;;;;;;37.73;16.10;;;;;;;;;;4991072;28;20205;-83
2023/12/29 07:06:40;;;;;;;42.37;20.57;;;;;;;;;;4992645;28;20193;-84
2023/12/29 07:09:10;;;;;;;45.67;20.37;;;;;;;;;;4992121;28;20189;-86
2023/12/29 07:11:39;;;;;;;45.40;21.87;;;;;;;;;;4993074;28;20261;-86
2023/12/29 07:14:06;;;;;;;39.40;20.23;;;;;;;;;;4992539;28;20691;-86
2023/12/29 07:16:36;;;;;;;46.90;21.37;;;;;;;;;;4992896;28;20239;-84
2023/12/29 07:19:04;;;;;;;62.73;23.20;;;;;;;;;;4968294;28;20198;-84
2023/12/29 07:21:34;;;;;;;50.73;24.20;;;;;;;;;;4966575;28;20218;-84
2023/12/29 07:24:01;;;;;;;57.37;23.80;;;;;;;;;;4964358;28;20216;-84
2023/12/29 07:26:35;;;;;;;62.20;23.20;;;;;;;;;;4985840;28;20226;-84
2023/12/29 07:29:03;;;;;;;47.73;21.73;;;;;;;;;;4984261;28;20272;-84
2023/12/29 07:31:33;;;;;;;55.40;22.00;;;;;;;;;;4982396;28;20335;-85
2023/12/29 07:34:04;;;;;;;47.77;21.00;;;;;;;;;;4983861;28;20231;-84
2023/12/29 07:36:33;;;;;;;41.33;21.10;;;;;;;;;;4993230;28;20636;-83
2023/12/29 07:39:04;;;;;;;47.37;22.10;;;;;;;;;;5003974;28;20739;-85
2023/12/29 07:41:37;;;;;;;51.07;23.80;;;;;;;;;;4999509;28;20852;-82
2023/12/29 07:44:07;;;;;;;48.90;24.50;;;;;;;;;;4972971;28;20252;-83
2023/12/29 07:46:38;;;;;;;40.47;21.30;;;;;;;;;;4989866;28;20670;-83
2023/12/29 07:49:10;;;;;;;51.00;24.03;;;;;;;;;;4982028;28;20202;-83
2023/12/29 07:51:43;;;;;;;39.87;21.10;;;;;;;;;;4976992;28;20218;-85
2023/12/29 07:54:13;;;;;;;40.37;19.53;;;;;;;;;;4973488;28;20671;-84
2023/12/29 07:56:42;;;;;;;40.73;20.83;;;;;;;;;;4972422;28;20210;-85
2023/12/29 07:59:10;;;;;;;33.63;18.83;;;;;;;;;;4972793;28;20200;-84
2023/12/29 08:01:42;;;;;;;38.20;19.37;;;;;;;;;;4971796;28;20209;-84
2023/12/29 08:04:15;;;;;;;27.13;16.30;;;;;;;;;;4972122;28;20569;-85
2023/12/29 08:06:44;;;;;;;33.03;19.20;;;;;;;;;;4960400;28;20244;-84
2023/12/29 08:09:14;;;;;;;46.10;21.30;;;;;;;;;;4957845;29;20297;-85
2023/12/29 08:11:44;;;;;;;43.63;22.83;;;;;;;;;;4952732;29;20233;-84
2023/12/29 08:14:15;;;;;;;50.70;21.90;;;;;;;;;;4952599;28;20258;-83
2023/12/29 08:16:44;;;;;;;41.97;20.97;;;;;;;;;;4962461;28;20269;-85
2023/12/29 08:19:15;;;;;;;45.00;21.87;;;;;;;;;;4968026;28;20688;-85
2023/12/29 08:21:47;;;;;;;43.07;21.43;;;;;;;;;;4960784;28;20302;-84
2023/12/29 08:24:17;;;;;;;35.50;19.20;;;;;;;;;;4964108;28;20198;-84
2023/12/29 08:26:46;;;;;;;44.40;21.07;;;;;;;;;;4966415;28;20190;-86
2023/12/29 08:29:16;;;;;;;39.50;21.67;;;;;;;;;;4978183;28;20237;-84
2023/12/29 08:31:45;;;;;;;41.83;20.27;;;;;;;;;;4995033;28;20226;-84
2023/12/29 08:34:18;;;;;;;44.37;23.70;;;;;;;;;;4984999;28;20222;-84
2023/12/29 08:36:50;;;;;;;52.63;24.23;;;;;;;;;;4971732;28;20194;-84
2023/12/29 08:39:18;;;;;;;53.30;24.00;;;;;;;;;;4970735;28;20210;-83
2023/12/29 08:41:49;;;;;;;47.53;23.63;;;;;;;;;;4984668;28;20285;-84
2023/12/29 08:44:17;;;;;;;50.27;27.50;;;;;;;;;;4990365;28;20198;-85
2023/12/29 08:46:50;;;;;;;56.70;28.83;;;;;;;;;;4990095;28;20666;-84
2023/12/29 08:49:22;;;;;;;63.80;29.07;;;;;;;;;;4991140;28;20248;-84
2023/12/29 08:51:51;;;;;;;58.43;30.03;;;;;;;;;;4990051;28;20237;-84
2023/12/29 08:54:19;;;;;;;58.70;28.70;;;;;;;;;;4991028;28;20524;-84
2023/12/29 08:56:50;;;;;;;51.10;27.30;;;;;;;;;;4991071;28;20273;-85
2023/12/29 08:59:21;;;;;;;57.93;26.83;;;;;;;;;;4972997;28;20679;-85
2023/12/29 09:01:51;;;;;;;52.20;27.33;;;;;;;;;;4971551;28;20535;-84
2023/12/29 09:04:21;;;;;;;50.43;25.93;;;;;;;;;;4966925;28;20310;-85
2023/12/29 09:06:52;;;;;;;58.67;28.60;;;;;;;;;;4973907;28;20231;-84
2023/12/29 09:09:20;;;;;;;58.53;28.70;;;;;;;;;;4969141;28;20309;-84
2023/12/29 09:11:48;;;;;;;52.03;27.53;;;;;;;;;;4943188;28;20241;-84
2023/12/29 09:14:16;;;;;;;55.50;29.03;;;;;;;;;;4968839;28;20227;-85
2023/12/29 09:16:46;;;;;;;55.13;27.13;;;;;;;;;;4962508;28;20337;-84
2023/12/29 09:19:16;;;;;;;55.97;28.73;;;;;;;;;;4975598;28;20313;-84
2023/12/29 09:21:47;;;;;;;60.97;29.63;;;;;;;;;;4970784;28;20269;-83
2023/12/29 09:24:16;;;;;;;60.17;28.37;;;;;;;;;;4970851;28;20924;-85
2023/12/29 09:26:44;;;;;;;63.07;28.43;;;;;;;;;;4969502;28;20741;-85
2023/12/29 09:29:13;;;;;;;55.20;27.00;;;;;;;;;;4967984;28;20230;-84
2023/12/29 09:31:42;;;;;;;54.33;26.80;;;;;;;;;;4969001;28;20239;-84
2023/12/29 09:34:12;;;;;;;54.93;27.83;;;;;;;;;;4964211;28;20773;-85
2023/12/29 09:36:40;;;;;;;55.03;27.03;;;;;;;;;;4969208;28;20240;-85
2023/12/29 09:39:52;;;;;;;53.43;26.50;;;;;;;;;;5018376;27;2526824;-84
2023/12/29 09:42:22;;;;;;;54.77;25.70;;;;;;;;;;5103740;28;20304;-84
2023/12/29 09:44:52;;;;;;;46.43;22.80;;;;;;;;;;5104137;28;20673;-84
2023/12/29 09:47:25;;;;;;;42.63;21.43;;;;;;;;;;5105221;28;20328;-85
2023/12/29 09:49:57;;;;;;;48.87;21.60;;;;;;;;;;5106007;28;20341;-85
2023/12/29 09:52:27;;;;;;;46.50;21.30;;;;;;;;;;5105177;28;20232;-84
2023/12/29 09:55:00;;;;;;;34.63;18.70;;;;;;;;;;5102905;28;20261;-84
2023/12/29 09:57:29;;;;;;;32.60;18.40;;;;;;;;;;5105981;28;20304;-88
2023/12/29 10:00:00;;;;;;;27.70;16.03;;;;;;;;;;5097173;28;20290;-84
2023/12/29 10:02:29;;;;;;;36.67;17.53;;;;;;;;;;5107725;28;20230;-84
2023/12/29 10:05:01;;;;;;;34.37;18.43;;;;;;;;;;5100565;28;20229;-85
2023/12/29 10:07:33;;;;;;;36.80;19.50;;;;;;;;;;5102257;28;20236;-84
2023/12/29 10:10:06;;;;;;;34.63;17.77;;;;;;;;;;5075046;28;20234;-84
2023/12/29 10:12:40;;;;;;;33.93;17.27;;;;;;;;;;5087330;28;20230;-84
2023/12/29 10:15:14;;;;;;;29.87;16.90;;;;;;;;;;5084935;28;20222;-85
2023/12/29 10:17:45;;;;;;;31.43;17.30;;;;;;;;;;5086229;28;20332;-85
2023/12/29 10:20:17;;;;;;;36.60;18.43;;;;;;;;;;5081041;28;20310;-84
2023/12/29 10:22:52;;;;;;;29.57;16.20;;;;;;;;;;5085994;28;20234;-86
2023/12/29 10:25:25;;;;;;;30.67;18.17;;;;;;;;;;5077487;28;20230;-84
2023/12/29 10:31:01;;;;;;;27.03;16.67;;;;;;;;;;5093558;28;20230;-84
2023/12/29 10:33:31;;;;;;;39.07;17.63;;;;;;;;;;5088410;28;20595;-84
2023/12/29 10:36:02;;;;;;;31.30;16.90;;;;;;;;;;5085023;28;20226;-84
2023/12/29 10:38:34;;;;;;;30.43;17.33;;;;;;;;;;5085492;28;20246;-84
2023/12/29 10:41:19;;;;;;;27.93;16.57;;;;;;;;;;5079098;28;20243;-85
2023/12/29 10:43:51;;;;;;;27.70;16.00;;;;;;;;;;5083855;28;20603;-83
2023/12/29 10:46:25;;;;;;;23.97;15.07;;;;;;;;;;5085473;28;20608;-83
2023/12/29 10:48:54;;;;;;;29.20;16.80;;;;;;;;;;5087921;28;20230;-85
2023/12/29 10:54:01;;;;;;;37.63;17.80;;;;;;;;;;5277289;22;20317;-85
2023/12/29 10:56:31;;;;;;;34.27;16.53;;;;;;;;;;5011937;28;20227;-85
2023/12/29 10:59:03;;;;;;;33.73;17.10;;;;;;;;;;5010514;28;20264;-85
2023/12/29 11:01:37;;;;;;;31.27;17.47;;;;;;;;;;5012743;28;20234;-85
2023/12/29 11:04:09;;;;;;;39.80;18.03;;;;;;;;;;5015114;28;20224;-84
2023/12/29 11:06:41;;;;;;;28.77;16.93;;;;;;;;;;5006952;28;20228;-85
2023/12/29 11:09:09;;;;;;;36.70;17.80;;;;;;;;;;5011685;28;20236;-84
2023/12/29 11:11:40;;;;;;;28.77;16.60;;;;;;;;;;4999826;28;20316;-84
2023/12/29 11:14:11;;;;;;;33.80;18.00;;;;;;;;;;5009711;28;20236;-84
2023/12/29 11:16:39;;;;;;;31.17;18.00;;;;;;;;;;4991764;28;20283;-84
2023/12/29 11:19:09;;;;;;;37.27;17.90;;;;;;;;;;5010080;28;20740;-84
2023/12/29 11:21:39;;;;;;;36.80;19.03;;;;;;;;;;5007796;28;20237;-84
2023/12/29 11:24:09;;;;;;;33.43;17.77;;;;;;;;;;5012872;28;20370;-85
2023/12/29 11:26:44;;;;;;;33.80;18.93;;;;;;;;;;5012062;28;20233;-84
2023/12/29 11:29:13;;;;;;;39.53;19.70;;;;;;;;;;5010960;28;20225;-84
2023/12/29 11:31:46;;;;;;;32.17;17.67;;;;;;;;;;5008483;28;20247;-84
2023/12/29 11:34:19;;;;;;;39.73;20.13;;;;;;;;;;5014277;28;20804;-86
2023/12/29 11:36:47;;;;;;;38.10;20.03;;;;;;;;;;5011309;28;20244;-85
2023/12/29 11:39:22;;;;;;;34.63;19.80;;;;;;;;;;5010827;28;20232;-84
2023/12/29 11:42:02;;;;;;;35.90;19.40;;;;;;;;;;5008945;28;20232;-85
2023/12/29 11:44:33;;;;;;;38.17;20.93;;;;;;;;;;5005986;28;20258;-85
2023/12/29 11:47:02;;;;;;;43.03;21.23;;;;;;;;;;5015925;28;20301;-85
2023/12/29 11:49:54;;;;;;;40.00;21.23;;;;;;;;;;5018604;28;20213;-83
2023/12/29 11:52:40;;;;;;;37.17;21.33;;;;;;;;;;5007325;28;20221;-86
2023/12/29 11:55:12;;;;;;;38.07;20.13;;;;;;;;;;5018720;28;20255;-84
2023/12/29 11:57:44;;;;;;;33.70;19.87;;;;;;;;;;4998062;28;20240;-84
2023/12/29 12:00:16;;;;;;;35.40;19.73;;;;;;;;;;5018260;28;20263;-84
2023/12/29 12:02:48;;;;;;;46.63;20.57;;;;;;;;;;5009828;28;20220;-84
2023/12/29 12:05:42;;;;;;;39.80;20.77;;;;;;;;;;5019039;28;20191;-86
2023/12/29 12:08:11;;;;;;;44.60;21.37;;;;;;;;;;5015771;28;20211;-86
2023/12/29 12:10:41;;;;;;;43.10;22.00;;;;;;;;;;5020019;28;20246;-84
2023/12/29 12:13:13;;;;;;;45.77;22.07;;;;;;;;;;5023017;28;20741;-83
2023/12/29 12:15:42;;;;;;;40.33;21.80;;;;;;;;;;5028830;28;20253;-85
2023/12/29 12:18:12;;;;;;;42.87;21.97;;;;;;;;;;5033639;28;20561;-83
2023/12/29 12:20:41;;;;;;;42.33;21.13;;;;;;;;;;5023298;28;20256;-84
2023/12/29 12:23:12;;;;;;;41.47;20.23;;;;;;;;;;5027293;28;20223;-85
2023/12/29 12:25:41;;;;;;;51.13;22.07;;;;;;;;;;5032470;28;20231;-85
2023/12/29 12:28:09;;;;;;;45.97;21.53;;;;;;;;;;5031526;28;20228;-84
2023/12/29 12:30:39;;;;;;;128.77;61.83;;;;;;;;;;5030922;28;20322;-84
2023/12/29 12:33:11;;;;;;;52.77;24.77;;;;;;;;;;5031718;28;20608;-85
2023/12/29 12:35:44;;;;;;;44.70;21.63;;;;;;;;;;5024988;28;20264;-85
2023/12/29 12:38:20;;;;;;;35.17;16.93;;;;;;;;;;5030445;28;20223;-85
2023/12/29 12:40:53;;;;;;;29.33;15.50;;;;;;;;;;5026035;28;20232;-85
2023/12/29 12:43:25;;;;;;;35.33;16.10;;;;;;;;;;5042441;28;20335;-85
2023/12/29 12:46:09;;;;;;;26.20;12.80;;;;;;;;;;5033321;28;20230;-86
2023/12/29 12:51:48;;;;;;;15.90;9.90;;;;;;;;;;4985336;28;20233;-84
2023/12/29 12:54:21;;;;;;;24.57;10.50;;;;;;;;;;4986978;28;20233;-84
2023/12/29 12:56:52;;;;;;;16.47;7.57;;;;;;;;;;4989627;28;20232;-85
2023/12/29 12:59:24;;;;;;;12.80;7.27;;;;;;;;;;4984167;28;20320;-85
2023/12/29 13:01:52;;;;;;;8.13;5.63;;;;;;;;;;4984516;28;20251;-85
2023/12/29 13:04:26;;;;;;;10.37;6.03;;;;;;;;;;4979484;28;20292;-86
2023/12/29 13:07:36;;;;;;;;;;;;;;;;;;;;;
2023/12/29 13:10:05;;;;;;;6.20;4.87;;;;;;;;;;5096941;23;20244;-86
2023/12/29 13:12:36;;;;;;;6.63;4.63;;;;;;;;;;4999682;28;20228;-86
2023/12/29 13:15:12;;;;;;;12.07;4.50;;;;;;;;;;4999961;28;20318;-86
2023/12/29 13:17:58;;;;;;;9.80;4.03;;;;;;;;;;5096232;23;20342;-85
2023/12/29 13:28:00;;;;;;;9.00;4.10;;;;;;;;;;5079657;28;20224;-84
2023/12/29 13:30:41;;;;;;;11.37;4.43;;;;;;;;;;5075487;28;20236;-83
2023/12/29 13:33:16;;;;;;;12.33;5.27;;;;;;;;;;5078523;28;20240;-83
2023/12/29 13:35:59;;;;;;;7.57;5.30;;;;;;;;;;5072221;28;20221;-83
2023/12/29 13:38:36;;;;;;;8.87;6.00;;;;;;;;;;5076049;28;20240;-83
2023/12/29 13:41:09;;;;;;;9.97;6.30;;;;;;;;;;5073087;28;20259;-85
2023/12/29 13:43:42;;;;;;;10.40;6.67;;;;;;;;;;5077438;28;20269;-83
2023/12/29 13:46:11;;;;;;;11.07;5.77;;;;;;;;;;5073026;28;20222;-84
2023/12/29 13:48:42;;;;;;;10.50;5.87;;;;;;;;;;5081383;28;20227;-84
2023/12/29 13:51:13;;;;;;;35.50;17.23;;;;;;;;;;5077225;28;20249;-84
2023/12/29 13:53:42;;;;;;;19.17;9.03;;;;;;;;;;5078293;28;20241;-83
2023/12/29 13:56:26;;;;;;;8.50;5.97;;;;;;;;;;5053963;28;20238;-85
2023/12/29 13:59:04;;;;;;;11.47;6.50;;;;;;;;;;5057929;28;20221;-83
2023/12/29 14:01:36;;;;;;;10.30;6.77;;;;;;;;;;5051539;28;20298;-84
2023/12/29 14:04:18;;;;;;;9.77;6.83;;;;;;;;;;5078000;28;20233;-84
2023/12/29 14:06:55;;;;;;;9.87;6.93;;;;;;;;;;5081860;28;20220;-85
2023/12/29 14:09:36;;;;;;;5.73;5.23;;;;;;;;;;5083841;28;20274;-84
2023/12/29 14:12:39;;;;;;;7.97;4.37;;;;;;;;;;5074058;28;20227;-86
2023/12/29 14:15:13;;;;;;;7.90;4.53;;;;;;;;;;5062997;28;20284;-85
2023/12/29 14:17:44;;;;;;;15.00;4.10;;;;;;;;;;5058619;28;20223;-84
2023/12/29 14:20:40;;;;;;;8.73;4.80;;;;;;;;;;5055464;28;20229;-85
2023/12/29 14:23:15;;;;;;;4.17;3.87;;;;;;;;;;5042908;28;20685;-85
2023/12/29 14:25:47;;;;;;;13.37;5.73;;;;;;;;;;5052870;28;20666;-84
2023/12/29 14:28:22;;;;;;;7.47;4.57;;;;;;;;;;5059209;28;20234;-84
2023/12/29 14:30:50;;;;;;;16.80;8.10;;;;;;;;;;5063650;28;20223;-85
2023/12/29 14:33:19;;;;;;;34.10;15.00;;;;;;;;;;5051684;28;20238;-85
2023/12/29 14:35:51;;;;;;;28.77;12.57;;;;;;;;;;5043819;28;20246;-84
2023/12/29 14:38:21;;;;;;;9.47;4.97;;;;;;;;;;5041069;28;20708;-84
2023/12/29 14:40:51;;;;;;;9.57;4.70;;;;;;;;;;5040650;28;20685;-84
2023/12/29 14:43:21;;;;;;;7.23;4.47;;;;;;;;;;5036950;28;20246;-85
2023/12/29 14:45:52;;;;;;;9.93;4.63;;;;;;;;;;5039145;28;20236;-85
2023/12/29 14:48:24;;;;;;;11.73;4.40;;;;;;;;;;5039588;28;20338;-83
2023/12/29 14:50:55;;;;;;;21.27;8.87;;;;;;;;;;5035278;28;20226;-83
2023/12/29 14:53:22;;;;;;;18.07;9.13;;;;;;;;;;5034746;28;20603;-85
2023/12/29 14:55:52;;;;;;;12.03;5.47;;;;;;;;;;5033601;28;20606;-85
2023/12/29 14:58:23;;;;;;;13.77;5.93;;;;;;;;;;5031154;28;20688;-84
2023/12/29 15:00:51;;;;;;;7.53;4.90;;;;;;;;;;5034602;28;20624;-85
2023/12/29 15:03:23;;;;;;;14.27;5.83;;;;;;;;;;5007564;28;20232;-85
2023/12/29 15:05:52;;;;;;;10.80;5.43;;;;;;;;;;5015302;28;20252;-85